sensor_id;sensor_type;location;lat;lon;timestamp;P1;durP1;ratioP1;P2;durP2;ratioP2
27857;SDS011;16852;51.446;6.528;2022-09-21T00:01:28;1.60;;;1.25;;
27857;SDS011;16852;51.446;6.528;2022-09-21T00:03:30;2.15;;;1.25;;
27857;SDS011;16852;51.446;6.528;2022-09-21T00:05:31;3.20;;;1.42;;
27857;SDS011;16852;51.446;6.528;2022-09-21T00:07:33;2.15;;;1.40;;
27857;SDS011;16852;51.446;6.528;2022-09-21T00:09:33;2.33;;;1.42;;
27857;SDS011;16852;51.446;6.528;2022-09-21T00:11:34;2.28;;;1.30;;
27857;SDS011;16852;51.446;6.528;2022-09-21T00:13:35;2.58;;;1.60;;
27857;SDS011;16852;51.446;6.528;2022-09-21T00:15:38;2.17;;;1.50;;
27857;SDS011;16852;51.446;6.528;2022-09-21T00:17:38;1.35;;;1.20;;
27857;SDS011;16852;51.446;6.528;2022-09-21T00:19:39;3.15;;;1.67;;
27857;SDS011;16852;51.446;6.528;2022-09-21T00:21:40;2.67;;;1.40;;
27857;SDS011;16852;51.446;6.528;2022-09-21T00:23:42;2.70;;;1.60;;
27857;SDS011;16852;51.446;6.528;2022-09-21T00:25:43;5.35;;;1.67;;
27857;SDS011;16852;51.446;6.528;2022-09-21T00:27:44;2.42;;;1.35;;
27857;SDS011;16852;51.446;6.528;2022-09-21T00:29:50;2.50;;;1.30;;
27857;SDS011;16852;51.446;6.528;2022-09-21T00:31:50;2.58;;;1.60;;
27857;SDS011;16852;51.446;6.528;2022-09-21T00:33:51;2.28;;;1.70;;
27857;SDS011;16852;51.446;6.528;2022-09-21T00:35:52;2.38;;;1.65;;
27857;SDS011;16852;51.446;6.528;2022-09-21T00:37:52;2.60;;;1.33;;
27857;SDS011;16852;51.446;6.528;2022-09-21T00:39:53;2.40;;;1.10;;
27857;SDS011;16852;51.446;6.528;2022-09-21T00:41:54;3.70;;;1.67;;
27857;SDS011;16852;51.446;6.528;2022-09-21T00:46:44;2.80;;;1.70;;
27857;SDS011;16852;51.446;6.528;2022-09-21T00:48:47;5.03;;;1.88;;
27857;SDS011;16852;51.446;6.528;2022-09-21T00:50:48;1.83;;;1.17;;
27857;SDS011;16852;51.446;6.528;2022-09-21T00:52:54;2.95;;;1.50;;
27857;SDS011;16852;51.446;6.528;2022-09-21T00:54:59;4.07;;;1.98;;
27857;SDS011;16852;51.446;6.528;2022-09-21T00:57:03;3.03;;;1.73;;
27857;SDS011;16852;51.446;6.528;2022-09-21T00:59:04;3.05;;;1.40;;
27857;SDS011;16852;51.446;6.528;2022-09-21T01:01:05;3.85;;;1.38;;
27857;SDS011;16852;51.446;6.528;2022-09-21T01:03:06;4.55;;;1.77;;
27857;SDS011;16852;51.446;6.528;2022-09-21T01:05:08;3.57;;;1.63;;
27857;SDS011;16852;51.446;6.528;2022-09-21T01:07:10;1.60;;;1.30;;
27857;SDS011;16852;51.446;6.528;2022-09-21T01:09:13;2.38;;;1.58;;
27857;SDS011;16852;51.446;6.528;2022-09-21T01:11:26;2.33;;;1.60;;
27857;SDS011;16852;51.446;6.528;2022-09-21T01:13:46;2.60;;;1.38;;
27857;SDS011;16852;51.446;6.528;2022-09-21T01:16:02;2.15;;;1.45;;
27857;SDS011;16852;51.446;6.528;2022-09-21T01:18:26;2.15;;;1.38;;
27857;SDS011;16852;51.446;6.528;2022-09-21T01:23:25;2.50;;;1.58;;
27857;SDS011;16852;51.446;6.528;2022-09-21T01:28:07;1.83;;;1.42;;
27857;SDS011;16852;51.446;6.528;2022-09-21T01:30:28;2.60;;;1.73;;
27857;SDS011;16852;51.446;6.528;2022-09-21T01:34:41;2.53;;;1.42;;
27857;SDS011;16852;51.446;6.528;2022-09-21T01:36:47;3.03;;;1.50;;
27857;SDS011;16852;51.446;6.528;2022-09-21T01:38:53;2.95;;;1.88;;
27857;SDS011;16852;51.446;6.528;2022-09-21T01:40:58;2.65;;;1.15;;
27857;SDS011;16852;51.446;6.528;2022-09-21T01:43:03;3.35;;;1.50;;
27857;SDS011;16852;51.446;6.528;2022-09-21T01:45:06;1.45;;;1.35;;
27857;SDS011;16852;51.446;6.528;2022-09-21T01:47:09;4.47;;;1.42;;
27857;SDS011;16852;51.446;6.528;2022-09-21T01:49:15;2.85;;;1.60;;
27857;SDS011;16852;51.446;6.528;2022-09-21T01:51:28;2.50;;;1.33;;
27857;SDS011;16852;51.446;6.528;2022-09-21T01:55:39;4.30;;;1.80;;
27857;SDS011;16852;51.446;6.528;2022-09-21T01:58:00;4.20;;;1.67;;
27857;SDS011;16852;51.446;6.528;2022-09-21T02:00:13;2.75;;;1.77;;
27857;SDS011;16852;51.446;6.528;2022-09-21T02:04:59;4.03;;;1.58;;
27857;SDS011;16852;51.446;6.528;2022-09-21T02:07:01;2.65;;;1.58;;
27857;SDS011;16852;51.446;6.528;2022-09-21T02:09:02;4.40;;;1.80;;
27857;SDS011;16852;51.446;6.528;2022-09-21T02:11:03;5.07;;;1.75;;
27857;SDS011;16852;51.446;6.528;2022-09-21T02:13:05;3.15;;;1.73;;
27857;SDS011;16852;51.446;6.528;2022-09-21T02:15:08;2.03;;;1.38;;
27857;SDS011;16852;51.446;6.528;2022-09-21T02:26:49;2.45;;;1.45;;
27857;SDS011;16852;51.446;6.528;2022-09-21T02:29:13;3.10;;;1.67;;
27857;SDS011;16852;51.446;6.528;2022-09-21T02:33:46;2.22;;;1.42;;
27857;SDS011;16852;51.446;6.528;2022-09-21T02:36:05;3.85;;;1.65;;
27857;SDS011;16852;51.446;6.528;2022-09-21T02:40:40;1.83;;;1.45;;
27857;SDS011;16852;51.446;6.528;2022-09-21T02:43:06;3.05;;;1.33;;
27857;SDS011;16852;51.446;6.528;2022-09-21T02:45:16;5.13;;;1.45;;
27857;SDS011;16852;51.446;6.528;2022-09-21T02:47:32;2.97;;;1.60;;
27857;SDS011;16852;51.446;6.528;2022-09-21T02:49:53;1.70;;;1.60;;
27857;SDS011;16852;51.446;6.528;2022-09-21T02:52:02;3.67;;;1.60;;
27857;SDS011;16852;51.446;6.528;2022-09-21T02:54:07;1.73;;;1.25;;
27857;SDS011;16852;51.446;6.528;2022-09-21T02:56:11;2.95;;;1.63;;
27857;SDS011;16852;51.446;6.528;2022-09-21T02:58:13;2.95;;;1.88;;
27857;SDS011;16852;51.446;6.528;2022-09-21T03:00:16;1.75;;;1.50;;
27857;SDS011;16852;51.446;6.528;2022-09-21T03:02:17;1.70;;;1.35;;
27857;SDS011;16852;51.446;6.528;2022-09-21T03:04:18;1.60;;;1.45;;
27857;SDS011;16852;51.446;6.528;2022-09-21T03:06:19;1.50;;;1.40;;
27857;SDS011;16852;51.446;6.528;2022-09-21T03:08:20;2.20;;;1.77;;
27857;SDS011;16852;51.446;6.528;2022-09-21T03:10:21;1.50;;;1.38;;
27857;SDS011;16852;51.446;6.528;2022-09-21T03:12:21;2.53;;;1.38;;
27857;SDS011;16852;51.446;6.528;2022-09-21T03:14:22;1.83;;;1.38;;
27857;SDS011;16852;51.446;6.528;2022-09-21T03:16:23;2.22;;;1.50;;
27857;SDS011;16852;51.446;6.528;2022-09-21T03:18:24;1.35;;;1.20;;
27857;SDS011;16852;51.446;6.528;2022-09-21T03:20:25;4.43;;;1.30;;
27857;SDS011;16852;51.446;6.528;2022-09-21T03:22:25;1.30;;;1.20;;
27857;SDS011;16852;51.446;6.528;2022-09-21T03:24:26;2.00;;;1.40;;
27857;SDS011;16852;51.446;6.528;2022-09-21T03:26:45;1.80;;;1.13;;
27857;SDS011;16852;51.446;6.528;2022-09-21T03:28:46;1.92;;;1.35;;
27857;SDS011;16852;51.446;6.528;2022-09-21T03:30:50;3.08;;;1.38;;
27857;SDS011;16852;51.446;6.528;2022-09-21T03:32:51;3.15;;;1.45;;
27857;SDS011;16852;51.446;6.528;2022-09-21T03:34:52;2.17;;;1.63;;
27857;SDS011;16852;51.446;6.528;2022-09-21T03:36:53;2.13;;;1.80;;
27857;SDS011;16852;51.446;6.528;2022-09-21T03:38:54;3.10;;;1.92;;
27857;SDS011;16852;51.446;6.528;2022-09-21T03:40:55;3.53;;;1.52;;
27857;SDS011;16852;51.446;6.528;2022-09-21T03:42:57;3.15;;;1.58;;
27857;SDS011;16852;51.446;6.528;2022-09-21T03:44:57;2.22;;;1.70;;
27857;SDS011;16852;51.446;6.528;2022-09-21T03:46:58;2.60;;;1.25;;
27857;SDS011;16852;51.446;6.528;2022-09-21T03:48:59;2.10;;;1.35;;
27857;SDS011;16852;51.446;6.528;2022-09-21T03:51:00;2.92;;;1.40;;
27857;SDS011;16852;51.446;6.528;2022-09-21T03:53:00;1.80;;;1.40;;
27857;SDS011;16852;51.446;6.528;2022-09-21T03:55:01;2.80;;;1.80;;
27857;SDS011;16852;51.446;6.528;2022-09-21T03:57:05;2.97;;;1.50;;
27857;SDS011;16852;51.446;6.528;2022-09-21T03:59:06;2.15;;;1.20;;
27857;SDS011;16852;51.446;6.528;2022-09-21T04:01:06;2.80;;;1.70;;
27857;SDS011;16852;51.446;6.528;2022-09-21T04:03:07;5.38;;;1.42;;
27857;SDS011;16852;51.446;6.528;2022-09-21T04:05:08;2.65;;;1.80;;
27857;SDS011;16852;51.446;6.528;2022-09-21T04:07:10;1.98;;;1.50;;
27857;SDS011;16852;51.446;6.528;2022-09-21T04:09:11;2.78;;;1.33;;
27857;SDS011;16852;51.446;6.528;2022-09-21T04:11:12;4.68;;;2.13;;
27857;SDS011;16852;51.446;6.528;2022-09-21T04:13:15;3.05;;;1.88;;
27857;SDS011;16852;51.446;6.528;2022-09-21T04:15:16;2.03;;;1.60;;
27857;SDS011;16852;51.446;6.528;2022-09-21T04:17:18;3.13;;;1.77;;
27857;SDS011;16852;51.446;6.528;2022-09-21T04:19:19;4.00;;;1.88;;
27857;SDS011;16852;51.446;6.528;2022-09-21T04:21:21;3.22;;;1.80;;
27857;SDS011;16852;51.446;6.528;2022-09-21T04:23:21;2.70;;;1.58;;
27857;SDS011;16852;51.446;6.528;2022-09-21T04:25:22;1.88;;;1.60;;
27857;SDS011;16852;51.446;6.528;2022-09-21T04:27:23;1.95;;;1.73;;
27857;SDS011;16852;51.446;6.528;2022-09-21T04:29:23;2.42;;;1.60;;
27857;SDS011;16852;51.446;6.528;2022-09-21T04:31:24;2.85;;;1.90;;
27857;SDS011;16852;51.446;6.528;2022-09-21T04:33:26;2.90;;;1.83;;
27857;SDS011;16852;51.446;6.528;2022-09-21T04:35:26;2.53;;;1.50;;
27857;SDS011;16852;51.446;6.528;2022-09-21T04:37:27;1.50;;;1.30;;
27857;SDS011;16852;51.446;6.528;2022-09-21T04:39:28;2.50;;;1.75;;
27857;SDS011;16852;51.446;6.528;2022-09-21T04:41:28;2.40;;;1.50;;
27857;SDS011;16852;51.446;6.528;2022-09-21T04:43:29;1.50;;;1.25;;
27857;SDS011;16852;51.446;6.528;2022-09-21T04:45:30;2.05;;;1.30;;
27857;SDS011;16852;51.446;6.528;2022-09-21T04:47:31;2.97;;;1.50;;
27857;SDS011;16852;51.446;6.528;2022-09-21T04:49:31;1.80;;;1.70;;
27857;SDS011;16852;51.446;6.528;2022-09-21T04:51:32;1.58;;;1.48;;
27857;SDS011;16852;51.446;6.528;2022-09-21T04:53:33;1.80;;;1.38;;
27857;SDS011;16852;51.446;6.528;2022-09-21T04:57:36;4.20;;;1.50;;
27857;SDS011;16852;51.446;6.528;2022-09-21T04:59:37;1.75;;;1.30;;
27857;SDS011;16852;51.446;6.528;2022-09-21T05:01:37;1.92;;;1.50;;
27857;SDS011;16852;51.446;6.528;2022-09-21T05:03:38;2.35;;;1.63;;
27857;SDS011;16852;51.446;6.528;2022-09-21T05:05:39;2.72;;;1.55;;
27857;SDS011;16852;51.446;6.528;2022-09-21T05:07:46;5.00;;;1.77;;
27857;SDS011;16852;51.446;6.528;2022-09-21T05:09:46;3.42;;;1.85;;
27857;SDS011;16852;51.446;6.528;2022-09-21T05:12:02;2.72;;;1.45;;
27857;SDS011;16852;51.446;6.528;2022-09-21T05:14:03;2.47;;;1.67;;
27857;SDS011;16852;51.446;6.528;2022-09-21T05:16:04;6.20;;;1.55;;
27857;SDS011;16852;51.446;6.528;2022-09-21T05:18:05;1.65;;;1.50;;
27857;SDS011;16852;51.446;6.528;2022-09-21T05:20:05;2.55;;;1.48;;
27857;SDS011;16852;51.446;6.528;2022-09-21T05:22:06;2.95;;;1.60;;
27857;SDS011;16852;51.446;6.528;2022-09-21T05:24:07;1.77;;;1.48;;
27857;SDS011;16852;51.446;6.528;2022-09-21T05:26:08;1.67;;;1.48;;
27857;SDS011;16852;51.446;6.528;2022-09-21T05:28:08;3.45;;;1.70;;
27857;SDS011;16852;51.446;6.528;2022-09-21T05:30:09;3.15;;;1.65;;
27857;SDS011;16852;51.446;6.528;2022-09-21T05:32:12;4.05;;;2.15;;
27857;SDS011;16852;51.446;6.528;2022-09-21T05:37:00;3.30;;;1.73;;
27857;SDS011;16852;51.446;6.528;2022-09-21T05:39:09;2.92;;;1.80;;
27857;SDS011;16852;51.446;6.528;2022-09-21T05:41:11;3.42;;;2.10;;
27857;SDS011;16852;51.446;6.528;2022-09-21T05:43:12;2.75;;;1.90;;
27857;SDS011;16852;51.446;6.528;2022-09-21T05:45:13;4.55;;;2.15;;
27857;SDS011;16852;51.446;6.528;2022-09-21T05:47:23;3.10;;;2.30;;
27857;SDS011;16852;51.446;6.528;2022-09-21T05:50:19;2.67;;;2.13;;
27857;SDS011;16852;51.446;6.528;2022-09-21T05:53:13;2.85;;;1.67;;
27857;SDS011;16852;51.446;6.528;2022-09-21T05:57:17;3.13;;;2.40;;
27857;SDS011;16852;51.446;6.528;2022-09-21T06:04:11;3.17;;;2.17;;
27857;SDS011;16852;51.446;6.528;2022-09-21T06:06:12;5.65;;;2.33;;
27857;SDS011;16852;51.446;6.528;2022-09-21T06:08:12;6.05;;;2.53;;
27857;SDS011;16852;51.446;6.528;2022-09-21T06:10:13;2.83;;;2.03;;
27857;SDS011;16852;51.446;6.528;2022-09-21T06:12:15;3.75;;;2.30;;
27857;SDS011;16852;51.446;6.528;2022-09-21T06:14:15;6.78;;;2.33;;
27857;SDS011;16852;51.446;6.528;2022-09-21T06:16:23;6.35;;;2.13;;
27857;SDS011;16852;51.446;6.528;2022-09-21T06:18:24;3.58;;;2.08;;
27857;SDS011;16852;51.446;6.528;2022-09-21T06:20:24;2.53;;;1.73;;
27857;SDS011;16852;51.446;6.528;2022-09-21T06:22:25;2.72;;;2.05;;
27857;SDS011;16852;51.446;6.528;2022-09-21T06:24:25;2.50;;;2.28;;
27857;SDS011;16852;51.446;6.528;2022-09-21T06:26:26;4.80;;;2.22;;
27857;SDS011;16852;51.446;6.528;2022-09-21T06:28:27;3.22;;;2.20;;
27857;SDS011;16852;51.446;6.528;2022-09-21T06:30:29;3.22;;;2.08;;
27857;SDS011;16852;51.446;6.528;2022-09-21T06:32:32;5.18;;;2.15;;
27857;SDS011;16852;51.446;6.528;2022-09-21T06:34:32;4.32;;;2.10;;
27857;SDS011;16852;51.446;6.528;2022-09-21T06:36:33;4.30;;;2.17;;
27857;SDS011;16852;51.446;6.528;2022-09-21T06:38:33;4.32;;;2.53;;
27857;SDS011;16852;51.446;6.528;2022-09-21T06:40:35;3.65;;;2.55;;
27857;SDS011;16852;51.446;6.528;2022-09-21T06:42:36;4.88;;;2.53;;
27857;SDS011;16852;51.446;6.528;2022-09-21T06:44:37;3.70;;;2.60;;
27857;SDS011;16852;51.446;6.528;2022-09-21T06:46:37;2.92;;;2.10;;
27857;SDS011;16852;51.446;6.528;2022-09-21T06:48:38;3.95;;;2.15;;
27857;SDS011;16852;51.446;6.528;2022-09-21T06:50:39;2.95;;;2.28;;
27857;SDS011;16852;51.446;6.528;2022-09-21T06:52:39;3.40;;;2.33;;
27857;SDS011;16852;51.446;6.528;2022-09-21T06:54:41;3.63;;;2.42;;
27857;SDS011;16852;51.446;6.528;2022-09-21T06:56:41;5.68;;;2.72;;
27857;SDS011;16852;51.446;6.528;2022-09-21T06:58:42;3.17;;;2.03;;
27857;SDS011;16852;51.446;6.528;2022-09-21T07:00:42;4.53;;;2.83;;
27857;SDS011;16852;51.446;6.528;2022-09-21T07:02:43;3.03;;;2.30;;
27857;SDS011;16852;51.446;6.528;2022-09-21T07:04:44;4.03;;;2.38;;
27857;SDS011;16852;51.446;6.528;2022-09-21T07:06:45;3.63;;;2.38;;
27857;SDS011;16852;51.446;6.528;2022-09-21T07:08:46;4.45;;;2.33;;
27857;SDS011;16852;51.446;6.528;2022-09-21T07:10:47;4.20;;;2.47;;
27857;SDS011;16852;51.446;6.528;2022-09-21T07:12:48;3.63;;;2.42;;
27857;SDS011;16852;51.446;6.528;2022-09-21T07:14:51;5.53;;;2.70;;
27857;SDS011;16852;51.446;6.528;2022-09-21T07:16:51;2.80;;;2.30;;
27857;SDS011;16852;51.446;6.528;2022-09-21T07:18:52;2.75;;;2.33;;
27857;SDS011;16852;51.446;6.528;2022-09-21T07:20:53;3.80;;;3.00;;
27857;SDS011;16852;51.446;6.528;2022-09-21T07:22:53;4.70;;;2.78;;
27857;SDS011;16852;51.446;6.528;2022-09-21T07:24:54;3.53;;;2.75;;
27857;SDS011;16852;51.446;6.528;2022-09-21T07:26:55;4.43;;;2.95;;
27857;SDS011;16852;51.446;6.528;2022-09-21T07:28:56;5.53;;;3.25;;
27857;SDS011;16852;51.446;6.528;2022-09-21T07:30:58;5.93;;;2.97;;
27857;SDS011;16852;51.446;6.528;2022-09-21T07:33:04;8.38;;;4.03;;
27857;SDS011;16852;51.446;6.528;2022-09-21T07:35:06;4.95;;;3.20;;
27857;SDS011;16852;51.446;6.528;2022-09-21T07:37:06;8.05;;;3.90;;
27857;SDS011;16852;51.446;6.528;2022-09-21T07:39:07;8.75;;;3.72;;
27857;SDS011;16852;51.446;6.528;2022-09-21T07:41:10;6.72;;;3.55;;
27857;SDS011;16852;51.446;6.528;2022-09-21T07:43:12;7.00;;;3.80;;
27857;SDS011;16852;51.446;6.528;2022-09-21T07:45:12;5.35;;;3.47;;
27857;SDS011;16852;51.446;6.528;2022-09-21T07:47:13;6.28;;;3.40;;
27857;SDS011;16852;51.446;6.528;2022-09-21T07:49:14;8.35;;;3.90;;
27857;SDS011;16852;51.446;6.528;2022-09-21T07:51:15;6.97;;;3.53;;
27857;SDS011;16852;51.446;6.528;2022-09-21T07:53:16;7.47;;;3.33;;
27857;SDS011;16852;51.446;6.528;2022-09-21T07:55:16;5.47;;;3.20;;
27857;SDS011;16852;51.446;6.528;2022-09-21T07:57:17;8.52;;;3.65;;
27857;SDS011;16852;51.446;6.528;2022-09-21T07:59:36;7.38;;;3.55;;
27857;SDS011;16852;51.446;6.528;2022-09-21T08:01:38;7.25;;;3.63;;
27857;SDS011;16852;51.446;6.528;2022-09-21T08:03:39;6.53;;;3.45;;
27857;SDS011;16852;51.446;6.528;2022-09-21T08:05:40;7.35;;;3.67;;
27857;SDS011;16852;51.446;6.528;2022-09-21T08:07:41;8.38;;;4.00;;
27857;SDS011;16852;51.446;6.528;2022-09-21T08:09:41;5.93;;;3.25;;
27857;SDS011;16852;51.446;6.528;2022-09-21T08:11:42;10.00;;;3.78;;
27857;SDS011;16852;51.446;6.528;2022-09-21T08:13:44;9.98;;;3.85;;
27857;SDS011;16852;51.446;6.528;2022-09-21T08:15:45;7.07;;;3.47;;
27857;SDS011;16852;51.446;6.528;2022-09-21T08:17:46;7.75;;;3.85;;
27857;SDS011;16852;51.446;6.528;2022-09-21T08:19:47;7.43;;;3.83;;
27857;SDS011;16852;51.446;6.528;2022-09-21T08:21:48;9.27;;;3.83;;
27857;SDS011;16852;51.446;6.528;2022-09-21T08:23:49;7.30;;;4.13;;
27857;SDS011;16852;51.446;6.528;2022-09-21T08:25:50;9.98;;;4.00;;
27857;SDS011;16852;51.446;6.528;2022-09-21T08:27:55;7.45;;;3.83;;
27857;SDS011;16852;51.446;6.528;2022-09-21T08:29:57;10.57;;;4.07;;
27857;SDS011;16852;51.446;6.528;2022-09-21T08:31:57;7.50;;;3.53;;
27857;SDS011;16852;51.446;6.528;2022-09-21T08:33:58;7.95;;;4.00;;
27857;SDS011;16852;51.446;6.528;2022-09-21T08:35:59;10.35;;;4.05;;
27857;SDS011;16852;51.446;6.528;2022-09-21T08:38:01;10.70;;;3.95;;
27857;SDS011;16852;51.446;6.528;2022-09-21T08:40:02;7.90;;;4.13;;
27857;SDS011;16852;51.446;6.528;2022-09-21T08:44:41;8.65;;;4.70;;
27857;SDS011;16852;51.446;6.528;2022-09-21T08:47:10;7.72;;;4.15;;
27857;SDS011;16852;51.446;6.528;2022-09-21T08:49:22;5.70;;;3.42;;
27857;SDS011;16852;51.446;6.528;2022-09-21T08:51:27;5.63;;;3.38;;
27857;SDS011;16852;51.446;6.528;2022-09-21T08:55:35;8.73;;;3.63;;
27857;SDS011;16852;51.446;6.528;2022-09-21T08:57:35;8.18;;;3.63;;
27857;SDS011;16852;51.446;6.528;2022-09-21T08:59:36;8.85;;;3.90;;
27857;SDS011;16852;51.446;6.528;2022-09-21T09:16:10;11.98;;;3.65;;
27857;SDS011;16852;51.446;6.528;2022-09-21T09:20:31;10.15;;;4.60;;
27857;SDS011;16852;51.446;6.528;2022-09-21T09:22:47;8.27;;;3.38;;
27857;SDS011;16852;51.446;6.528;2022-09-21T09:25:02;7.70;;;3.88;;
27857;SDS011;16852;51.446;6.528;2022-09-21T09:29:16;5.35;;;2.70;;
27857;SDS011;16852;51.446;6.528;2022-09-21T09:31:24;5.95;;;3.08;;
27857;SDS011;16852;51.446;6.528;2022-09-21T09:33:51;6.32;;;3.03;;
27857;SDS011;16852;51.446;6.528;2022-09-21T09:36:11;8.70;;;3.67;;
27857;SDS011;16852;51.446;6.528;2022-09-21T09:38:29;9.55;;;3.33;;
27857;SDS011;16852;51.446;6.528;2022-09-21T09:40:51;7.80;;;3.22;;
27857;SDS011;16852;51.446;6.528;2022-09-21T09:43:01;7.93;;;3.67;;
27857;SDS011;16852;51.446;6.528;2022-09-21T09:45:19;9.85;;;4.55;;
27857;SDS011;16852;51.446;6.528;2022-09-21T09:47:32;8.55;;;4.60;;
27857;SDS011;16852;51.446;6.528;2022-09-21T09:50:07;8.93;;;3.85;;
27857;SDS011;16852;51.446;6.528;2022-09-21T09:52:12;8.50;;;3.78;;
27857;SDS011;16852;51.446;6.528;2022-09-21T09:54:15;8.88;;;3.72;;
27857;SDS011;16852;51.446;6.528;2022-09-21T09:58:22;8.00;;;3.67;;
27857;SDS011;16852;51.446;6.528;2022-09-21T10:00:41;6.55;;;2.90;;
27857;SDS011;16852;51.446;6.528;2022-09-21T10:02:49;7.95;;;3.20;;
27857;SDS011;16852;51.446;6.528;2022-09-21T10:07:00;10.23;;;3.53;;
27857;SDS011;16852;51.446;6.528;2022-09-21T10:09:01;6.63;;;3.60;;
27857;SDS011;16852;51.446;6.528;2022-09-21T10:11:33;7.25;;;3.67;;
27857;SDS011;16852;51.446;6.528;2022-09-21T10:13:36;9.43;;;3.90;;
27857;SDS011;16852;51.446;6.528;2022-09-21T10:15:40;8.75;;;3.70;;
27857;SDS011;16852;51.446;6.528;2022-09-21T10:17:44;10.50;;;4.32;;
27857;SDS011;16852;51.446;6.528;2022-09-21T10:19:47;10.65;;;4.13;;
27857;SDS011;16852;51.446;6.528;2022-09-21T10:21:47;7.80;;;3.67;;
27857;SDS011;16852;51.446;6.528;2022-09-21T10:23:57;7.90;;;3.78;;
27857;SDS011;16852;51.446;6.528;2022-09-21T10:26:07;7.93;;;3.40;;
27857;SDS011;16852;51.446;6.528;2022-09-21T10:28:09;5.65;;;2.70;;
27857;SDS011;16852;51.446;6.528;2022-09-21T10:32:32;7.00;;;3.00;;
27857;SDS011;16852;51.446;6.528;2022-09-21T10:34:35;7.20;;;2.85;;
27857;SDS011;16852;51.446;6.528;2022-09-21T10:36:36;4.63;;;2.38;;
27857;SDS011;16852;51.446;6.528;2022-09-21T10:38:37;7.65;;;2.95;;
27857;SDS011;16852;51.446;6.528;2022-09-21T10:40:38;8.40;;;3.42;;
27857;SDS011;16852;51.446;6.528;2022-09-21T10:42:40;10.77;;;2.92;;
27857;SDS011;16852;51.446;6.528;2022-09-21T10:46:47;7.00;;;2.65;;
27857;SDS011;16852;51.446;6.528;2022-09-21T10:48:48;6.25;;;2.70;;
27857;SDS011;16852;51.446;6.528;2022-09-21T10:50:49;6.35;;;2.35;;
27857;SDS011;16852;51.446;6.528;2022-09-21T10:53:09;7.22;;;3.33;;
27857;SDS011;16852;51.446;6.528;2022-09-21T10:55:22;5.07;;;2.58;;
27857;SDS011;16852;51.446;6.528;2022-09-21T10:57:24;7.28;;;2.40;;
27857;SDS011;16852;51.446;6.528;2022-09-21T10:59:28;3.15;;;1.88;;
27857;SDS011;16852;51.446;6.528;2022-09-21T11:01:31;6.47;;;2.38;;
27857;SDS011;16852;51.446;6.528;2022-09-21T11:06:14;5.78;;;2.20;;
27857;SDS011;16852;51.446;6.528;2022-09-21T11:08:31;5.43;;;2.20;;
27857;SDS011;16852;51.446;6.528;2022-09-21T11:10:59;4.78;;;1.98;;
27857;SDS011;16852;51.446;6.528;2022-09-21T11:13:23;4.53;;;2.20;;
27857;SDS011;16852;51.446;6.528;2022-09-21T11:15:36;4.18;;;1.73;;
27857;SDS011;16852;51.446;6.528;2022-09-21T11:17:47;4.13;;;1.70;;
27857;SDS011;16852;51.446;6.528;2022-09-21T11:19:56;3.70;;;1.58;;
27857;SDS011;16852;51.446;6.528;2022-09-21T11:26:52;3.90;;;1.48;;
27857;SDS011;16852;51.446;6.528;2022-09-21T11:31:36;4.30;;;1.77;;
27857;SDS011;16852;51.446;6.528;2022-09-21T11:34:07;4.18;;;1.65;;
27857;SDS011;16852;51.446;6.528;2022-09-21T11:36:38;4.15;;;1.88;;
27857;SDS011;16852;51.446;6.528;2022-09-21T11:38:49;5.88;;;1.95;;
27857;SDS011;16852;51.446;6.528;2022-09-21T11:41:05;4.25;;;1.55;;
27857;SDS011;16852;51.446;6.528;2022-09-21T11:43:32;4.35;;;1.70;;
27857;SDS011;16852;51.446;6.528;2022-09-21T11:50:59;3.53;;;1.45;;
27857;SDS011;16852;51.446;6.528;2022-09-21T12:00:21;5.47;;;1.77;;
27857;SDS011;16852;51.446;6.528;2022-09-21T12:02:29;2.97;;;1.60;;
27857;SDS011;16852;51.446;6.528;2022-09-21T12:07:15;3.63;;;1.27;;
27857;SDS011;16852;51.446;6.528;2022-09-21T12:09:52;2.03;;;0.90;;
27857;SDS011;16852;51.446;6.528;2022-09-21T12:12:19;5.10;;;1.40;;
27857;SDS011;16852;51.446;6.528;2022-09-21T12:16:42;1.38;;;0.80;;
27857;SDS011;16852;51.446;6.528;2022-09-21T12:21:21;4.50;;;1.60;;
27857;SDS011;16852;51.446;6.528;2022-09-21T12:23:49;1.95;;;1.00;;
27857;SDS011;16852;51.446;6.528;2022-09-21T12:25:55;4.13;;;1.40;;
27857;SDS011;16852;51.446;6.528;2022-09-21T12:30:20;2.97;;;1.00;;
27857;SDS011;16852;51.446;6.528;2022-09-21T12:32:35;1.90;;;0.90;;
27857;SDS011;16852;51.446;6.528;2022-09-21T12:34:53;2.58;;;1.10;;
27857;SDS011;16852;51.446;6.528;2022-09-21T12:36:59;3.58;;;1.23;;
27857;SDS011;16852;51.446;6.528;2022-09-21T12:39:13;4.05;;;1.40;;
27857;SDS011;16852;51.446;6.528;2022-09-21T12:41:36;1.25;;;0.80;;
27857;SDS011;16852;51.446;6.528;2022-09-21T12:46:20;1.63;;;0.80;;
27857;SDS011;16852;51.446;6.528;2022-09-21T12:53:02;2.55;;;1.10;;
27857;SDS011;16852;51.446;6.528;2022-09-21T12:55:49;2.63;;;1.10;;
27857;SDS011;16852;51.446;6.528;2022-09-21T12:57:32;2.75;;;1.10;;
27857;SDS011;16852;51.446;6.528;2022-09-21T13:00:09;2.67;;;1.13;;
27857;SDS011;16852;51.446;6.528;2022-09-21T13:02:23;2.90;;;1.42;;
27857;SDS011;16852;51.446;6.528;2022-09-21T13:09:41;1.77;;;0.90;;
27857;SDS011;16852;51.446;6.528;2022-09-21T13:11:52;1.67;;;0.77;;
27857;SDS011;16852;51.446;6.528;2022-09-21T13:13:59;2.10;;;0.80;;
27857;SDS011;16852;51.446;6.528;2022-09-21T13:16:03;2.58;;;0.93;;
27857;SDS011;16852;51.446;6.528;2022-09-21T13:18:13;1.10;;;0.73;;
27857;SDS011;16852;51.446;6.528;2022-09-21T13:20:23;2.45;;;1.00;;
27857;SDS011;16852;51.446;6.528;2022-09-21T13:22:24;4.45;;;1.60;;
27857;SDS011;16852;51.446;6.528;2022-09-21T13:24:30;3.53;;;1.77;;
27857;SDS011;16852;51.446;6.528;2022-09-21T13:26:32;8.65;;;2.67;;
27857;SDS011;16852;51.446;6.528;2022-09-21T13:44:42;5.00;;;1.90;;
27857;SDS011;16852;51.446;6.528;2022-09-21T13:46:46;6.75;;;2.22;;
27857;SDS011;16852;51.446;6.528;2022-09-21T13:48:52;4.97;;;1.95;;
27857;SDS011;16852;51.446;6.528;2022-09-21T13:50:56;3.83;;;1.90;;
27857;SDS011;16852;51.446;6.528;2022-09-21T13:53:01;4.50;;;2.05;;
27857;SDS011;16852;51.446;6.528;2022-09-21T13:55:04;4.50;;;1.95;;
27857;SDS011;16852;51.446;6.528;2022-09-21T13:57:17;3.58;;;1.83;;
27857;SDS011;16852;51.446;6.528;2022-09-21T13:59:23;5.32;;;1.95;;
27857;SDS011;16852;51.446;6.528;2022-09-21T14:01:30;6.75;;;2.03;;
27857;SDS011;16852;51.446;6.528;2022-09-21T14:03:34;4.35;;;2.10;;
27857;SDS011;16852;51.446;6.528;2022-09-21T14:05:41;3.20;;;1.77;;
27857;SDS011;16852;51.446;6.528;2022-09-21T14:07:45;3.70;;;1.67;;
27857;SDS011;16852;51.446;6.528;2022-09-21T14:09:54;5.23;;;2.17;;
27857;SDS011;16852;51.446;6.528;2022-09-21T14:11:59;3.78;;;1.77;;
27857;SDS011;16852;51.446;6.528;2022-09-21T14:14:20;4.35;;;1.85;;
27857;SDS011;16852;51.446;6.528;2022-09-21T14:18:34;7.13;;;2.20;;
27857;SDS011;16852;51.446;6.528;2022-09-21T14:20:36;5.35;;;2.17;;
27857;SDS011;16852;51.446;6.528;2022-09-21T14:22:37;4.03;;;2.10;;
27857;SDS011;16852;51.446;6.528;2022-09-21T14:24:39;7.20;;;2.55;;
27857;SDS011;16852;51.446;6.528;2022-09-21T14:26:49;6.70;;;1.98;;
27857;SDS011;16852;51.446;6.528;2022-09-21T14:28:58;3.40;;;1.85;;
27857;SDS011;16852;51.446;6.528;2022-09-21T14:31:45;4.80;;;2.05;;
27857;SDS011;16852;51.446;6.528;2022-09-21T14:35:56;4.63;;;1.95;;
27857;SDS011;16852;51.446;6.528;2022-09-21T14:38:02;2.50;;;1.45;;
27857;SDS011;16852;51.446;6.528;2022-09-21T14:40:29;3.67;;;1.85;;
27857;SDS011;16852;51.446;6.528;2022-09-21T14:42:37;3.63;;;1.88;;
27857;SDS011;16852;51.446;6.528;2022-09-21T14:44:40;4.15;;;1.85;;
27857;SDS011;16852;51.446;6.528;2022-09-21T14:46:46;2.70;;;1.80;;
27857;SDS011;16852;51.446;6.528;2022-09-21T14:49:13;5.15;;;1.80;;
27857;SDS011;16852;51.446;6.528;2022-09-21T14:51:43;4.10;;;1.85;;
27857;SDS011;16852;51.446;6.528;2022-09-21T14:56:04;4.50;;;1.70;;
27857;SDS011;16852;51.446;6.528;2022-09-21T14:58:48;2.80;;;1.55;;
27857;SDS011;16852;51.446;6.528;2022-09-21T15:03:44;3.28;;;1.83;;